San Benito, Texas
Current Conditions -  °F | °C
As of 5:52 PM on Saturday 22 Nov 2014 (Local Time) from KHRL Reporting Station
Clear Clear  
Wind Chill: 74°   Ceiling: Unl
Heat Index: 74°   Visibility: 10mi
Dew Point: 67°   Wind: 15mph
Humidity: 79%   Direction: 160°SSE
Pressure: 29.72"   Gusts: NA
Location:  26.13°N, 97.63°W
Report Text: KHRL 222352Z 16013KT 10SM CLR 23/19 A2972 RMK AO2 SLP063 T02330194 10278 20233 56024
Loading
Personal Weather Stations






























Interactive Weather Map New forecast layout! Learn more

10-Day Weather Forecast

Advertisements
Track Severe Weather on mobile